MFV weather

Accomack County Airport
Melfa, Virginia, United States

Public forecast

Using degrees Fahrenheit for public forecast. Weather courtesy of forecast.io.

METAR (pilot weather report)

Retrieved 2019/07/20 04:35 UTC (0 seconds ago):

KMFV 200435Z AUTO 19006KT 10SM CLR 28/26 A2993 RMK AO2 T02750261

TAF (pilot weather forecast)

Forecast is more than 12 hours old.

Closest forecast is Salisbury Ocean City Wicomico Regional Airport, 43.3 nm (80.2 km) NNE. Retrieved 2019/07/19 00:33 UTC (1 day ago):

TAF KSBY 192331Z 2000/2024 21004KT P6SM SKC FM201200 27005KT P6SM SCT200 FM201800 24008KT P6SM FEW050